Time;durP1;ratioP1;P1;durP2;ratioP2;P2;SDS_P1;SDS_P2;PMS_P1;PMS_P2;Temp;Humidity;BMP_temperature;BMP_pressure;BME280_temperature;BME280_humidity;BME280_pressure;Samples;Min_cycle;Max_cycle;Signal;HPM_P1;HPM_P2
2021/08/15 00:01:14;;;;;;;9.48;8.73;;;;;;;22.11;86.84;98777.19;4960872;28;103130;-72
2021/08/15 00:03:43;;;;;;;9.23;8.43;;;;;;;22.08;87.15;98765.94;4967497;28;106765;-72
2021/08/15 00:06:11;;;;;;;11.27;10.25;;;;;;;22.01;87.08;98765.81;4971258;28;104572;-72
2021/08/15 00:08:40;;;;;;;11.38;10.38;;;;;;;21.98;87.50;98760.78;4967576;28;104141;-73
2021/08/15 00:11:08;;;;;;;12.00;10.00;;;;;;;21.97;87.35;98761.84;4964952;28;103954;-74
2021/08/15 00:13:37;;;;;;;9.55;8.70;;;;;;;22.00;86.84;98761.47;4969877;28;103334;-73
2021/08/15 00:16:05;;;;;;;10.60;9.60;;;;;;;22.03;86.97;98754.91;4967315;28;104793;-73
2021/08/15 00:18:35;;;;;;;11.25;10.35;;;;;;;22.01;86.62;98751.56;4965564;28;103828;-72
2021/08/15 00:21:03;;;;;;;9.60;8.80;;;;;;;21.99;86.72;98753.56;4975079;28;103357;-73
2021/08/15 00:23:31;;;;;;;9.50;8.70;;;;;;;21.91;87.20;98759.88;4969481;28;104900;-74
2021/08/15 00:26:02;;;;;;;15.25;13.68;;;;;;;21.73;88.59;98754.75;4970529;28;104659;-74
2021/08/15 00:28:32;;;;;;;17.20;15.70;;;;;;;21.55;89.94;98756.09;4965448;28;104427;-73
2021/08/15 00:31:00;;;;;;;17.85;16.05;;;;;;;20.95;92.63;98748.69;4966035;28;103195;-75
2021/08/15 00:33:28;;;;;;;15.80;14.35;;;;;;;20.94;94.30;98748.88;4975407;28;105172;-76
2021/08/15 00:35:57;;;;;;;16.08;14.45;;;;;;;21.13;92.31;98749.31;4967759;28;104290;-72
2021/08/15 00:38:25;;;;;;;16.17;14.77;;;;;;;21.35;91.16;98747.66;4974080;28;105111;-73
2021/08/15 00:40:53;;;;;;;14.05;12.65;;;;;;;21.39;90.98;98749.78;4969784;28;102938;-72
2021/08/15 00:43:22;;;;;;;14.75;13.45;;;;;;;21.31;91.36;98736.41;4976170;28;104239;-73
2021/08/15 00:45:51;;;;;;;17.40;15.80;;;;;;;21.20;92.15;98733.28;4969360;28;105272;-72
2021/08/15 00:48:19;;;;;;;14.20;12.95;;;;;;;21.31;91.36;98731.03;4968737;28;105605;-73
2021/08/15 00:50:47;;;;;;;11.27;10.25;;;;;;;21.38;90.27;98734.72;4969984;28;103373;-72
2021/08/15 00:53:15;;;;;;;12.32;11.10;;;;;;;21.46;89.68;98728.44;4971229;28;105449;-73
2021/08/15 00:55:43;;;;;;;10.40;9.38;;;;;;;21.53;88.75;98728.56;4963224;28;104772;-74
2021/08/15 00:58:16;;;;;;;9.82;8.93;;;;;;;21.51;88.95;98730.56;4967675;28;103790;-73
2021/08/15 01:00:47;;;;;;;15.45;13.85;;;;;;;21.39;89.53;98724.75;4962293;28;103975;-74
2021/08/15 01:03:15;;;;;;;12.15;11.05;;;;;;;21.32;90.23;98721.97;4969699;28;106798;-75
2021/08/15 01:05:43;;;;;;;13.95;12.73;;;;;;;21.24;90.85;98724.72;4965567;28;104828;-74
2021/08/15 01:08:11;;;;;;;14.27;12.82;;;;;;;21.16;90.99;98716.72;4972270;28;103838;-73
2021/08/15 01:10:39;;;;;;;15.18;13.77;;;;;;;20.94;93.33;98717.44;4966172;28;102915;-73
2021/08/15 01:13:06;;;;;;;17.45;15.73;;;;;;;20.84;93.60;98716.84;4971555;28;103897;-72
2021/08/15 01:15:35;;;;;;;17.67;16.08;;;;;;;20.76;94.34;98712.34;4967329;28;105041;-75
2021/08/15 01:18:18;;;;;;;17.35;15.63;;;;;;;20.73;95.48;98706.50;4966612;28;103797;-75
2021/08/15 01:20:46;;;;;;;13.95;12.65;;;;;;;20.75;95.63;98701.78;4970091;28;103225;-72
2021/08/15 01:23:14;;;;;;;14.73;13.40;;;;;;;20.87;94.81;98705.75;4965909;28;104553;-75
2021/08/15 01:25:42;;;;;;;11.68;10.70;;;;;;;20.98;93.69;98707.19;4971340;28;104823;-74
2021/08/15 01:28:16;;;;;;;14.48;13.07;;;;;;;20.97;93.11;98711.72;4965346;28;103847;-71
2021/08/15 01:30:44;;;;;;;18.38;15.07;;;;;;;20.74;94.93;98705.50;4967390;28;103835;-72
2021/08/15 01:33:13;;;;;;;15.60;14.20;;;;;;;20.73;95.36;98704.66;4969261;28;105033;-74
2021/08/15 01:35:43;;;;;;;15.13;13.40;;;;;;;20.75;95.21;98701.78;4969210;28;104563;-73
2021/08/15 01:38:11;;;;;;;14.43;13.13;;;;;;;20.81;94.67;98701.09;4965205;28;104046;-74
2021/08/15 01:40:39;;;;;;;14.73;13.43;;;;;;;20.81;94.64;98699.25;4967168;28;104770;-74
2021/08/15 01:43:06;;;;;;;13.82;12.68;;;;;;;20.81;94.56;98698.41;4962216;28;104756;-74
2021/08/15 01:45:36;;;;;;;15.45;13.98;;;;;;;20.79;94.08;98700.44;4971040;28;105210;-73
2021/08/15 01:48:04;;;;;;;12.80;11.65;;;;;;;20.73;94.94;98693.06;4960525;28;104251;-73
2021/08/15 01:50:32;;;;;;;13.38;12.27;;;;;;;20.76;94.23;98698.09;4969715;28;103483;-73
2021/08/15 01:53:00;;;;;;;12.13;11.13;;;;;;;20.78;94.06;98693.38;4960992;28;104893;-73
2021/08/15 01:55:28;;;;;;;11.40;10.40;;;;;;;20.82;93.32;98697.41;4965491;28;104633;-73
2021/08/15 01:57:56;;;;;;;11.02;10.13;;;;;;;20.72;94.10;98696.75;4966422;28;104163;-74
2021/08/15 02:00:24;;;;;;;11.80;10.80;;;;;;;20.71;94.46;98695.94;4981989;28;103509;-73
2021/08/15 02:02:53;;;;;;;10.23;9.32;;;;;;;20.77;93.02;98694.41;4964475;28;104795;-74
2021/08/15 02:05:21;;;;;;;11.25;10.25;;;;;;;20.76;93.23;98695.41;4964791;28;104890;-72
2021/08/15 02:07:54;;;;;;;13.90;12.65;;;;;;;20.70;93.62;98693.41;4964549;28;104449;-73
2021/08/15 02:10:24;;;;;;;10.98;9.98;;;;;;;20.65;94.01;98696.63;4970305;28;103160;-74
2021/08/15 02:12:53;;;;;;;12.95;11.75;;;;;;;20.56;93.96;98700.34;4970252;28;104733;-74
2021/08/15 02:15:21;;;;;;;13.77;12.57;;;;;;;20.33;95.55;98701.25;4960696;28;107716;-74
2021/08/15 02:17:49;;;;;;;13.90;12.55;;;;;;;20.20;96.38;98694.59;4976351;28;103780;-73
2021/08/15 02:20:20;;;;;;;13.40;12.13;;;;;;;20.33;95.81;98696.75;4974692;28;103241;-75
2021/08/15 02:22:49;;;;;;;13.63;12.43;;;;;;;20.38;95.25;98696.25;4971943;28;104559;-75
2021/08/15 02:25:19;;;;;;;11.43;10.43;;;;;;;20.39;95.33;98697.91;4970812;28;104730;-75
2021/08/15 02:27:47;;;;;;;13.80;12.63;;;;;;;20.38;94.55;98694.38;4966033;28;107348;-73
2021/08/15 02:30:18;;;;;;;13.65;12.15;;;;;;;20.33;95.21;98702.09;4964896;28;103330;-73
2021/08/15 02:32:46;;;;;;;11.00;10.00;;;;;;;20.33;95.48;98701.25;4969976;28;104920;-73
2021/08/15 02:35:15;;;;;;;10.02;9.10;;;;;;;20.41;94.40;98693.19;4962086;28;104857;-73
2021/08/15 02:37:47;;;;;;;10.02;9.23;;;;;;;20.47;94.03;98692.50;4959288;28;104707;-73
2021/08/15 02:40:16;;;;;;;9.52;8.73;;;;;;;20.50;93.60;98697.53;4970553;28;107839;-74
2021/08/15 02:42:46;;;;;;;9.63;8.82;;;;;;;20.50;92.59;98702.88;4962312;28;105470;-73
2021/08/15 02:45:16;;;;;;;9.90;9.05;;;;;;;20.50;92.23;98698.38;4961964;28;104842;-74
2021/08/15 02:47:44;;;;;;;11.70;10.70;;;;;;;20.47;92.36;98696.03;4964425;28;107126;-73
2021/08/15 02:50:14;;;;;;;10.32;9.45;;;;;;;20.47;92.13;98700.53;4970399;28;103095;-73
2021/08/15 02:52:42;;;;;;;10.13;9.32;;;;;;;20.40;92.31;98689.69;4963394;28;104649;-73
2021/08/15 02:55:13;;;;;;;9.55;8.75;;;;;;;20.40;92.20;98696.91;4965857;28;103905;-73
2021/08/15 02:57:41;;;;;;;10.57;9.68;;;;;;;20.41;91.79;98696.72;4961643;28;104304;-75
2021/08/15 03:00:11;;;;;;;10.70;9.88;;;;;;;20.37;91.73;98692.72;4966758;28;106790;-73
2021/08/15 03:02:40;;;;;;;14.38;12.98;;;;;;;20.16;93.63;98695.91;4960235;28;105456;-74
2021/08/15 03:05:09;;;;;;;13.55;12.25;;;;;;;20.15;94.06;98694.22;4963731;28;104553;-73
2021/08/15 03:07:37;;;;;;;13.02;11.77;;;;;;;20.17;94.05;98692.25;4971055;28;103164;-74
2021/08/15 03:10:08;;;;;;;9.65;8.88;;;;;;;20.20;93.67;98699.94;4961946;28;103163;-73
2021/08/15 03:12:37;;;;;;;12.30;11.10;;;;;;;20.21;93.00;98698.06;4961813;28;104837;-74
2021/08/15 03:15:06;;;;;;;14.15;12.85;;;;;;;20.08;94.44;98693.25;4966038;28;104968;-74
2021/08/15 03:17:36;;;;;;;12.20;11.10;;;;;;;20.12;93.78;98694.59;4968440;28;104120;-73
2021/08/15 03:20:04;;;;;;;10.60;9.70;;;;;;;20.13;93.54;98685.53;4964686;28;103439;-73
2021/08/15 03:22:32;;;;;;;12.73;11.52;;;;;;;20.13;93.16;98690.91;4968415;28;104959;-73
2021/08/15 03:25:00;;;;;;;11.85;10.85;;;;;;;20.09;93.76;98688.75;4965337;28;104716;-76
2021/08/15 03:27:28;;;;;;;9.48;8.65;;;;;;;20.08;93.62;98685.22;4961924;28;104318;-74
2021/08/15 03:29:57;;;;;;;13.75;12.55;;;;;;;19.96;94.62;98680.38;4967324;28;103458;-72
2021/08/15 03:32:25;;;;;;;12.60;11.38;;;;;;;19.76;96.95;98677.22;4971072;28;104723;-74
2021/08/15 03:34:53;;;;;;;13.35;12.15;;;;;;;19.68;97.54;98674.53;4965950;28;104825;-74
2021/08/15 03:37:21;;;;;;;12.25;11.13;;;;;;;19.66;96.94;98685.44;4968799;28;103785;-75
2021/08/15 03:39:49;;;;;;;13.82;12.63;;;;;;;19.43;98.56;98679.06;4965555;28;107526;-74
2021/08/15 03:42:17;;;;;;;9.85;8.85;;;;;;;19.60;97.99;98677.22;4971963;28;104974;-74
2021/08/15 03:44:45;;;;;;;9.65;8.73;;;;;;;19.78;96.23;98674.38;4968264;28;104789;-73
2021/08/15 03:47:14;;;;;;;9.20;8.50;;;;;;;19.85;94.74;98668.16;4970512;28;104258;-75
2021/08/15 03:49:42;;;;;;;11.98;10.35;;;;;;;19.82;94.66;98673.03;4965686;28;102853;-75
2021/08/15 03:52:10;;;;;;;10.02;9.10;;;;;;;19.85;94.14;98673.50;4965571;28;104814;-74
2021/08/15 03:54:39;;;;;;;9.43;8.20;;;;;;;19.78;94.62;98669.84;4972394;28;104071;-74
2021/08/15 03:57:07;;;;;;;9.55;8.75;;;;;;;19.71;94.97;98668.84;4969409;28;103840;-74
2021/08/15 03:59:35;;;;;;;8.32;7.53;;;;;;;19.73;95.17;98672.22;4971350;28;103421;-74
2021/08/15 04:02:03;;;;;;;8.88;8.18;;;;;;;19.76;94.32;98671.03;4966908;28;104765;-75
2021/08/15 04:04:32;;;;;;;9.57;8.85;;;;;;;19.76;94.36;98660.31;4975412;28;104633;-74
2021/08/15 04:07:00;;;;;;;8.85;8.10;;;;;;;19.73;94.95;98660.66;4972653;28;104063;-76
2021/08/15 04:09:29;;;;;;;11.07;10.02;;;;;;;19.66;94.68;98660.47;4969701;28;103133;-74
2021/08/15 04:11:57;;;;;;;13.88;12.57;;;;;;;19.45;95.74;98663.66;4967198;28;104567;-72
2021/08/15 04:14:25;;;;;;;12.95;11.65;;;;;;;19.35;97.30;98662.13;4963624;28;105488;-73
2021/08/15 04:16:53;;;;;;;10.82;9.93;;;;;;;19.39;97.46;98656.31;4978705;28;103151;-73
2021/08/15 04:19:21;;;;;;;13.00;11.70;;;;;;;19.44;97.22;98662.00;4968596;28;103840;-74
2021/08/15 04:21:50;;;;;;;13.00;11.80;;;;;;;19.31;97.16;98655.44;4970247;28;104794;-73
2021/08/15 04:24:20;;;;;;;11.02;10.02;;;;;;;19.29;98.13;98652.06;4965143;28;105248;-72
2021/08/15 04:26:48;;;;;;;12.40;11.27;;;;;;;19.16;98.77;98651.75;4966468;28;104711;-75
2021/08/15 04:29:16;;;;;;;11.88;10.88;;;;;;;19.26;98.30;98647.03;4973083;28;103523;-74
2021/08/15 04:31:44;;;;;;;12.93;11.55;;;;;;;19.23;99.07;98650.09;4964392;28;104749;-75
2021/08/15 04:34:12;;;;;;;12.73;11.55;;;;;;;19.14;99.49;98656.44;4967587;28;104822;-73
2021/08/15 04:36:40;;;;;;;14.50;13.10;;;;;;;19.08;99.95;98650.75;4965467;28;103792;-73
2021/08/15 04:39:09;;;;;;;14.70;13.30;;;;;;;19.06;100.00;98655.41;4968773;28;103329;-73
2021/08/15 04:41:37;;;;;;;11.20;10.10;;;;;;;19.30;99.15;98659.13;4967635;28;107635;-74
2021/08/15 04:44:06;;;;;;;9.50;8.80;;;;;;;19.43;97.71;98654.13;4973307;28;104504;-74
2021/08/15 04:46:33;;;;;;;8.82;8.13;;;;;;;19.39;97.39;98653.63;4971323;28;104003;-74
2021/08/15 04:49:01;;;;;;;10.68;9.70;;;;;;;19.43;96.59;98651.44;4974517;28;102999;-74
2021/08/15 04:51:30;;;;;;;13.45;12.05;;;;;;;19.19;97.68;98656.75;4974972;28;105150;-73
2021/08/15 04:53:58;;;;;;;13.98;12.65;;;;;;;19.14;99.16;98659.09;4977144;28;104404;-73
2021/08/15 04:56:27;;;;;;;10.80;9.85;;;;;;;19.24;99.70;98662.44;4973684;28;104339;-74
2021/08/15 04:58:56;;;;;;;13.70;12.40;;;;;;;19.34;98.92;98665.81;4964830;28;103209;-74
2021/08/15 05:01:24;;;;;;;11.30;10.35;;;;;;;19.49;97.68;98672.22;4964274;28;105353;-74
2021/08/15 05:03:52;;;;;;;12.07;10.98;;;;;;;19.58;97.80;98669.38;4967775;28;104527;-74
2021/08/15 05:06:21;;;;;;;12.98;11.82;;;;;;;19.54;99.02;98676.06;4973528;28;104799;-74
2021/08/15 05:08:49;;;;;;;13.05;11.77;;;;;;;19.59;99.80;98673.69;4968114;28;103086;-74
2021/08/15 05:11:17;;;;;;;11.23;10.27;;;;;;;19.59;100.00;98675.56;4975131;28;104688;-73
2021/08/15 05:13:46;;;;;;;16.02;14.50;;;;;;;19.55;100.00;98664.34;4967251;28;104876;-74
2021/08/15 05:16:14;;;;;;;17.15;15.45;;;;;;;19.54;100.00;98684.09;4962988;28;104791;-73
2021/08/15 05:18:42;;;;;;;18.33;16.65;;;;;;;19.40;100.00;98675.88;4964027;28;103470;-74
2021/08/15 05:21:10;;;;;;;13.18;11.95;;;;;;;19.76;100.00;98671.84;4970023;28;104936;-76
2021/08/15 05:23:38;;;;;;;10.65;9.73;;;;;;;20.02;100.00;98679.69;4968799;28;104646;-73
2021/08/15 05:26:08;;;;;;;10.88;9.77;;;;;;;20.06;99.03;98673.84;4971377;28;103872;-74
2021/08/15 05:28:37;;;;;;;18.48;16.65;;;;;;;19.95;100.00;98676.03;4969468;28;106770;-80
2021/08/15 05:31:07;;;;;;;20.15;17.85;;;;;;;19.67;100.00;98672.88;4969547;28;104543;-78
2021/08/15 05:33:35;;;;;;;20.25;18.35;;;;;;;19.74;100.00;98683.75;4975515;28;104478;-77
2021/08/15 05:36:03;;;;;;;23.20;19.85;;;;;;;19.77;100.00;98678.91;4976038;28;103037;-78
2021/08/15 05:38:31;;;;;;;21.40;19.50;;;;;;;19.78;100.00;98683.25;4987787;28;103501;-80
2021/08/15 05:40:59;;;;;;;17.85;16.30;;;;;;;19.95;100.00;98684.91;4970298;28;102807;-78
2021/08/15 05:43:27;;;;;;;19.65;17.60;;;;;;;20.04;100.00;98680.38;4972043;28;109467;-76
2021/08/15 05:45:55;;;;;;;14.90;13.57;;;;;;;20.34;100.00;98684.16;4973067;28;104562;-78
2021/08/15 05:48:27;;;;;;;14.35;13.10;;;;;;;20.62;100.00;98685.41;4969493;28;103625;-78
2021/08/15 05:50:55;;;;;;;12.70;11.70;;;;;;;20.76;99.84;98682.81;4978289;28;104907;-80
2021/08/15 05:53:23;;;;;;;12.60;11.50;;;;;;;20.90;98.89;98689.28;4961593;28;105961;-82
2021/08/15 05:55:51;;;;;;;11.60;10.50;;;;;;;21.15;98.01;98681.94;4969307;28;104496;-82
2021/08/15 05:58:19;;;;;;;11.15;9.93;;;;;;;21.32;96.07;98678.16;4972078;28;103386;-85
2021/08/15 06:00:48;;;;;;;13.20;12.10;;;;;;;21.39;95.40;98679.09;4969469;28;105935;-82
2021/08/15 06:03:16;;;;;;;12.82;11.70;;;;;;;21.52;94.40;98675.81;4972279;28;104793;-84
2021/08/15 06:05:46;;;;;;;13.25;11.80;;;;;;;21.58;94.33;98672.41;4968765;28;104641;-82
2021/08/15 06:08:15;;;;;;;12.75;11.57;;;;;;;21.63;93.40;98662.78;4971749;28;105722;-84
2021/08/15 06:10:43;;;;;;;15.35;13.95;;;;;;;21.62;93.60;98662.94;4973817;28;104624;-82
2021/08/15 06:13:11;;;;;;;18.73;17.00;;;;;;;21.48;94.26;98661.88;4964082;28;104343;-83
2021/08/15 06:15:39;;;;;;;14.13;12.73;;;;;;;21.69;93.71;98659.38;4967869;28;104091;-84
2021/08/15 06:18:07;;;;;;;15.20;13.23;;;;;;;21.73;93.42;98665.19;4972646;28;103337;-83
2021/08/15 06:20:35;;;;;;;12.38;11.38;;;;;;;21.93;92.33;98664.53;4965178;28;105000;-84
2021/08/15 06:23:05;;;;;;;12.45;11.35;;;;;;;22.14;91.34;98666.50;4972670;28;103586;-84
2021/08/15 06:25:33;;;;;;;11.02;10.13;;;;;;;22.24;90.50;98659.00;4971559;28;103468;-82
2021/08/15 06:28:01;;;;;;;16.00;14.60;;;;;;;22.03;91.11;98661.59;4969983;28;103451;-82
2021/08/15 06:30:29;;;;;;;13.57;12.50;;;;;;;22.12;91.56;98654.28;4969383;28;103831;-82
2021/08/15 06:32:57;;;;;;;11.80;10.77;;;;;;;22.41;89.85;98659.63;4965892;28;103888;-83
2021/08/15 06:35:26;;;;;;;16.50;15.05;;;;;;;22.56;89.09;98659.63;4974980;28;103737;-83
2021/08/15 06:37:55;;;;;;;14.75;13.45;;;;;;;22.65;88.89;98651.31;4971763;28;103052;-83
2021/08/15 06:40:27;;;;;;;13.88;12.57;;;;;;;22.81;88.14;98644.84;4978361;28;108122;-84
2021/08/15 06:43:05;;;;;;;13.75;12.55;;;;;;;22.98;87.40;98646.28;4969393;28;104590;-84
2021/08/15 06:45:33;;;;;;;14.00;12.77;;;;;;;23.12;87.14;98648.09;4973796;28;103768;-86
2021/08/15 06:48:01;;;;;;;11.73;10.73;;;;;;;23.05;86.67;98641.78;4970715;28;103277;-86
2021/08/15 06:50:29;;;;;;;11.95;10.95;;;;;;;23.22;85.97;98637.81;4970748;28;104845;-84
2021/08/15 06:52:57;;;;;;;10.65;9.75;;;;;;;23.39;85.73;98639.28;4975143;28;104560;-84
2021/08/15 06:55:27;;;;;;;13.88;12.60;;;;;;;23.51;85.46;98642.28;4970162;28;104893;-75
2021/08/15 06:57:55;;;;;;;17.67;15.98;;;;;;;22.90;86.44;98638.34;4966697;28;103522;-79
2021/08/15 07:00:23;;;;;;;13.38;12.07;;;;;;;23.21;87.93;98641.56;4965545;28;104411;-76
2021/08/15 07:02:51;;;;;;;18.20;16.30;;;;;;;22.77;88.25;98638.16;4963264;28;104666;-76
2021/08/15 07:05:21;;;;;;;14.60;13.38;;;;;;;22.84;89.47;98639.09;4961859;28;103991;-76
2021/08/15 07:07:48;;;;;;;14.20;13.02;;;;;;;23.49;86.01;98639.81;4969374;28;103068;-76
2021/08/15 07:10:16;;;;;;;11.85;10.85;;;;;;;23.88;83.98;98641.97;4968050;28;104749;-76
2021/08/15 07:12:48;;;;;;;14.55;13.15;;;;;;;24.12;83.56;98641.53;4969945;28;104747;-82
2021/08/15 07:15:17;;;;;;;11.27;10.38;;;;;;;24.08;83.68;98642.13;4972715;28;103888;-72
2021/08/15 07:17:45;;;;;;;13.45;12.27;;;;;;;24.05;83.22;98645.19;4959558;28;106943;-72
2021/08/15 07:20:14;;;;;;;11.82;10.80;;;;;;;24.20;83.61;98644.06;4962258;28;104627;-72
2021/08/15 07:22:42;;;;;;;17.42;15.60;;;;;;;23.74;84.12;98632.13;4966962;28;104565;-72
2021/08/15 07:25:11;;;;;;;17.58;16.08;;;;;;;23.44;84.85;98631.44;4968105;28;104522;-71
2021/08/15 07:27:39;;;;;;;16.58;15.18;;;;;;;23.73;83.23;98635.84;4969293;28;103505;-74
2021/08/15 07:30:10;;;;;;;17.02;15.05;;;;;;;24.22;82.44;98625.81;4959568;28;106041;-72
2021/08/15 07:32:49;;;;;;;17.23;15.65;;;;;;;23.84;82.92;98620.97;4961596;28;105003;-72
2021/08/15 07:35:17;;;;;;;16.67;15.18;;;;;;;23.94;82.72;98616.06;4965300;28;105149;-72
2021/08/15 07:37:45;;;;;;;17.10;15.48;;;;;;;23.76;81.46;98630.06;4961297;28;103024;-72
2021/08/15 07:40:14;;;;;;;17.73;15.93;;;;;;;24.11;80.92;98617.47;4959316;28;105025;-72
2021/08/15 07:42:42;;;;;;;17.95;16.30;;;;;;;24.05;81.44;98623.63;4963214;28;105223;-72
2021/08/15 07:45:12;;;;;;;15.27;13.77;;;;;;;24.83;80.03;98622.38;4963657;28;103915;-72
2021/08/15 07:47:41;;;;;;;16.60;14.98;;;;;;;24.69;80.53;98622.31;4961571;28;103572;-72
2021/08/15 07:50:10;;;;;;;17.48;15.70;;;;;;;25.18;78.13;98618.53;4957692;28;104383;-73
2021/08/15 07:52:38;;;;;;;18.17;16.17;;;;;;;25.06;78.41;98622.88;4967137;28;104860;-72
2021/08/15 07:55:07;;;;;;;17.35;15.25;;;;;;;25.17;78.99;98630.38;4974162;28;104227;-72
2021/08/15 07:57:35;;;;;;;16.58;15.07;;;;;;;25.05;77.85;98626.59;4966632;28;103969;-72
2021/08/15 08:00:04;;;;;;;15.00;13.55;;;;;;;25.20;77.65;98624.56;4966518;28;104533;-72
2021/08/15 08:02:34;;;;;;;17.23;15.57;;;;;;;26.02;74.31;98619.56;4958899;28;104366;-73
2021/08/15 08:05:05;;;;;;;13.88;12.60;;;;;;;26.49;73.26;98626.59;4971096;28;105347;-72
2021/08/15 08:07:33;;;;;;;13.48;12.00;;;;;;;26.84;72.21;98621.66;4975545;28;103397;-73
2021/08/15 08:10:01;;;;;;;11.90;10.95;;;;;;;27.54;70.45;98621.44;4973948;28;104562;-72
2021/08/15 08:12:32;;;;;;;10.13;9.23;;;;;;;28.04;68.73;98621.47;4967474;28;108265;-72
2021/08/15 08:15:01;;;;;;;18.45;13.68;;;;;;;28.16;65.89;98625.09;4967564;28;104343;-73
2021/08/15 08:17:29;;;;;;;12.32;11.13;;;;;;;28.14;67.69;98619.06;4970250;28;103276;-72
2021/08/15 08:19:58;;;;;;;14.43;12.98;;;;;;;28.58;66.18;98612.47;4963625;28;104831;-72
2021/08/15 08:22:26;;;;;;;16.13;14.55;;;;;;;27.94;65.83;98610.25;4967101;28;105225;-71
2021/08/15 08:24:54;;;;;;;16.58;15.18;;;;;;;26.87;69.28;98608.50;4965697;28;106337;-71
2021/08/15 08:27:22;;;;;;;14.73;13.23;;;;;;;27.30;68.29;98607.84;4970588;28;103410;-72
2021/08/15 08:29:50;;;;;;;12.23;11.13;;;;;;;28.68;64.95;98591.91;4965113;28;105657;-72
2021/08/15 08:32:18;;;;;;;15.55;14.05;;;;;;;28.91;62.95;98596.63;4964621;28;105375;-71
2021/08/15 08:34:46;;;;;;;17.70;14.23;;;;;;;27.75;66.47;98587.66;4962049;28;105074;-71
2021/08/15 08:37:17;;;;;;;13.55;12.45;;;;;;;28.79;65.84;98593.03;4968551;28;105827;-71
2021/08/15 08:39:45;;;;;;;14.57;13.07;;;;;;;29.50;61.65;98594.94;4971774;28;104627;-70
2021/08/15 08:42:13;;;;;;;12.20;11.18;;;;;;;30.12;61.02;98588.00;4971525;28;104659;-74
2021/08/15 08:44:41;;;;;;;10.68;9.88;;;;;;;30.69;59.66;98595.25;4964435;28;104351;-74
2021/08/15 08:47:11;;;;;;;16.42;14.82;;;;;;;28.94;62.06;98595.34;4969009;28;107671;-75
2021/08/15 08:49:41;;;;;;;13.05;11.85;;;;;;;29.62;61.07;98588.44;4964757;28;104581;-74
2021/08/15 08:52:10;;;;;;;11.88;10.88;;;;;;;29.61;61.96;98586.78;4969742;28;104592;-74
2021/08/15 08:54:39;;;;;;;13.18;11.32;;;;;;;30.04;60.81;98583.72;4970072;28;106023;-74
2021/08/15 08:57:07;;;;;;;13.88;12.65;;;;;;;29.78;59.28;98576.81;4965587;28;103649;-74
2021/08/15 08:59:37;;;;;;;11.13;10.13;;;;;;;30.63;58.08;98570.84;4969822;28;104647;-76
2021/08/15 09:02:05;;;;;;;11.82;10.77;;;;;;;30.58;59.30;98576.19;4970025;28;104586;-75
2021/08/15 09:04:34;;;;;;;13.90;12.38;;;;;;;31.05;56.58;98572.22;4966594;28;105402;-76
2021/08/15 09:07:10;;;;;;;12.52;10.93;;;;;;;31.26;57.92;98568.81;4966733;28;104093;-75
2021/08/15 09:09:41;;;;;;;11.00;10.07;;;;;;;31.94;56.73;98565.84;4965322;28;104644;-76
2021/08/15 09:12:09;;;;;;;11.00;10.10;;;;;;;31.80;55.16;98563.72;4968295;28;104305;-75
2021/08/15 09:14:37;;;;;;;9.57;8.35;;;;;;;32.46;54.78;98557.28;4967692;28;103848;-75
2021/08/15 09:17:07;;;;;;;10.80;9.90;;;;;;;32.05;53.65;98555.91;4967806;28;103183;-75
2021/08/15 09:19:37;;;;;;;10.15;9.25;;;;;;;32.49;53.84;98556.75;4968999;28;105197;-75
2021/08/15 09:22:17;;;;;;;10.10;9.20;;;;;;;32.44;52.79;98538.41;4965535;28;104735;-75
2021/08/15 09:24:50;;;;;;;10.13;9.13;;;;;;;31.96;56.00;98543.72;4965340;28;103882;-76
2021/08/15 09:27:24;;;;;;;9.60;8.80;;;;;;;33.21;51.94;98535.44;4974078;28;102592;-76
2021/08/15 09:30:07;;;;;;;12.32;11.02;;;;;;;31.80;52.60;98541.88;4963080;28;104599;-76
2021/08/15 09:32:37;;;;;;;10.70;9.80;;;;;;;32.59;53.66;98540.53;4959535;28;106967;-79
2021/08/15 09:35:06;;;;;;;11.40;10.20;;;;;;;33.41;51.96;98535.59;4969386;28;105852;-77
2021/08/15 09:37:37;;;;;;;13.07;11.68;;;;;;;32.15;52.67;98528.72;4971203;28;103265;-76
2021/08/15 09:40:25;;;;;;;12.40;11.18;;;;;;;31.39;55.74;98532.16;4965429;28;106117;-77
2021/08/15 09:42:54;;;;;;;12.15;10.95;;;;;;;31.12;54.90;98529.28;4962983;28;104632;-76
2021/08/15 09:45:42;;;;;;;13.60;11.23;;;;;;;30.91;57.04;98524.47;4946145;28;104812;-75
2021/08/15 09:48:19;;;;;;;10.32;9.43;;;;;;;32.03;55.01;98523.38;4950669;28;103201;-75
2021/08/15 09:51:05;;;;;;;11.65;10.40;;;;;;;33.10;51.22;98517.25;4965197;28;105428;-76
2021/08/15 09:53:34;;;;;;;10.98;9.65;;;;;;;32.51;52.70;98511.69;4963401;28;104786;-74
2021/08/15 09:56:04;;;;;;;8.98;8.27;;;;;;;33.70;53.32;98519.69;4961281;28;104171;-75
2021/08/15 09:58:33;;;;;;;9.95;9.05;;;;;;;34.15;50.21;98511.78;4962257;28;103482;-72
2021/08/15 10:01:04;;;;;;;9.88;9.18;;;;;;;34.11;49.48;98509.81;4950091;28;105197;-81
2021/08/15 10:03:34;;;;;;;18.13;11.52;;;;;;;33.60;51.06;98503.22;4952958;28;104618;-74
2021/08/15 10:06:02;;;;;;;58.05;13.32;;;;;;;32.99;52.98;98510.00;4961033;28;104233;-74
2021/08/15 10:08:30;;;;;;;41.08;12.32;;;;;;;33.72;51.43;98507.38;4959084;28;103171;-73
2021/08/15 10:10:59;;;;;;;34.65;10.32;;;;;;;33.92;50.40;98509.44;4961553;28;104757;-74
2021/08/15 10:13:28;;;;;;;12.05;10.48;;;;;;;33.28;49.32;98511.41;4956722;28;106840;-77
2021/08/15 10:16:01;;;;;;;11.63;10.57;;;;;;;31.82;52.70;98517.84;4953478;28;105816;-73
2021/08/15 10:18:31;;;;;;;14.63;11.32;;;;;;;31.47;54.60;98505.31;4953018;28;103376;-74
2021/08/15 10:21:07;;;;;;;10.65;9.75;;;;;;;32.93;53.07;98494.66;4957839;28;105348;-75
2021/08/15 10:23:39;;;;;;;10.25;9.45;;;;;;;33.95;49.07;98489.72;4945222;28;104899;-73
2021/08/15 10:26:43;;;;;;;11.63;10.38;;;;;;;33.33;51.13;98494.19;4960654;28;104017;-75
2021/08/15 10:29:55;;;;;;;12.30;11.20;;;;;;;30.78;54.48;98489.34;4950162;28;103174;-74
2021/08/15 10:32:24;;;;;;;12.02;11.00;;;;;;;30.92;55.55;98491.56;4957144;28;104883;-74
2021/08/15 10:35:14;;;;;;;10.00;9.15;;;;;;;31.20;55.55;98482.47;4959536;28;105280;-76
2021/08/15 10:37:42;;;;;;;13.40;11.77;;;;;;;30.12;56.39;98473.59;4958536;28;104438;-75
2021/08/15 10:40:55;;;;;;;12.43;11.10;;;;;;;31.48;55.45;98476.97;4956937;28;104193;-75
2021/08/15 10:44:09;;;;;;;10.35;9.40;;;;;;;32.38;52.95;98473.81;4954055;28;104555;-75
2021/08/15 10:46:58;;;;;;;11.40;10.43;;;;;;;32.69;51.99;98462.16;4945170;28;104638;-74
2021/08/15 10:49:52;;;;;;;11.60;10.60;;;;;;;31.34;53.79;98467.44;4963903;28;104718;-74
2021/08/15 10:52:36;;;;;;;9.27;8.50;;;;;;;32.09;53.69;98469.63;4956695;28;103473;-74
2021/08/15 10:55:23;;;;;;;8.82;8.18;;;;;;;32.58;52.87;98471.34;4962572;28;105298;-73
2021/08/15 10:57:55;;;;;;;9.40;8.63;;;;;;;31.47;54.48;98472.56;4950292;28;105047;-76
2021/08/15 11:00:44;;;;;;;7.50;6.95;;;;;;;31.79;55.29;98472.75;4954757;28;106061;-75
2021/08/15 11:03:50;;;;;;;9.48;8.57;;;;;;;32.14;53.27;98464.25;4958438;28;103427;-75
2021/08/15 11:06:48;;;;;;;10.45;9.45;;;;;;;32.00;52.57;98471.13;4947896;28;105137;-76
2021/08/15 11:09:18;;;;;;;12.20;9.98;;;;;;;31.21;54.94;98469.66;4951042;28;104841;-74
2021/08/15 11:12:14;;;;;;;8.82;7.93;;;;;;;31.55;54.93;98463.94;4951821;28;103980;-74
2021/08/15 11:15:03;;;;;;;10.20;8.80;;;;;;;31.66;55.35;98448.56;4909625;28;103730;-74
2021/08/15 11:17:32;;;;;;;9.25;8.45;;;;;;;31.68;55.47;98440.09;4950080;28;105834;-75
2021/08/15 11:20:36;;;;;;;7.57;6.88;;;;;;;31.89;55.63;98422.91;4949046;28;105382;-75
2021/08/15 11:23:10;;;;;;;11.27;9.00;;;;;;;31.23;55.95;98427.41;4949129;28;104372;-75
2021/08/15 11:25:39;;;;;;;9.02;8.13;;;;;;;31.22;56.09;98433.94;4954595;28;103990;-73
2021/08/15 11:28:07;;;;;;;10.85;9.88;;;;;;;30.66;57.94;98425.88;4950061;28;104672;-75